createdAt,value
2019-04-30T00:00:38.462Z,15.35
2019-04-30T00:01:48.514Z,15.20
2019-04-30T00:02:51.860Z,15.33
2019-04-30T00:04:05.781Z,15.33
2019-04-30T00:05:14.563Z,15.34
2019-04-30T00:06:16.060Z,15.34
2019-04-30T00:07:20.298Z,15.35
2019-04-30T00:08:25.692Z,15.31
2019-04-30T00:09:31.109Z,15.26
2019-04-30T00:10:41.244Z,15.31
2019-04-30T00:11:42.088Z,15.33
2019-04-30T00:12:46.911Z,15.32
2019-04-30T00:13:55.371Z,15.33
2019-04-30T00:14:57.003Z,15.33
2019-04-30T00:16:02.875Z,15.33
2019-04-30T00:17:10.742Z,15.31
2019-04-30T00:18:12.941Z,15.33
2019-04-30T00:19:19.657Z,15.31
2019-04-30T00:20:25.521Z,15.31
2019-04-30T00:21:29.170Z,15.30
2019-04-30T00:22:34.520Z,15.24
2019-04-30T00:23:39.572Z,15.22
2019-04-30T00:24:46.826Z,15.20
2019-04-30T00:25:49.798Z,15.16
2019-04-30T00:26:55.155Z,15.16
2019-04-30T00:28:04.291Z,15.13
2019-04-30T00:29:06.032Z,15.14
2019-04-30T00:30:10.216Z,15.12
2019-04-30T00:31:17.379Z,15.13
2019-04-30T00:32:20.465Z,15.13
2019-04-30T00:33:25.648Z,15.15
2019-04-30T00:34:34.903Z,15.16
2019-04-30T00:35:36.712Z,15.18
2019-04-30T00:36:40.899Z,15.20
2019-04-30T00:37:47.413Z,15.17
2019-04-30T00:38:51.197Z,15.19
2019-04-30T00:39:55.639Z,15.18
2019-04-30T00:41:01.862Z,15.19
2019-04-30T00:42:05.814Z,15.16
2019-04-30T00:43:10.318Z,15.19
2019-04-30T00:44:15.128Z,15.19
2019-04-30T00:45:20.505Z,15.10
2019-04-30T00:46:29.104Z,15.26
2019-04-30T00:47:30.652Z,15.27
2019-04-30T00:48:35.833Z,15.29
2019-04-30T00:49:40.181Z,15.21
2019-04-30T00:50:45.765Z,15.24
2019-04-30T00:51:54.684Z,15.25
2019-04-30T00:52:57.878Z,15.24
2019-04-30T00:54:02.013Z,15.27
2019-04-30T00:55:09.188Z,15.25
2019-04-30T00:56:15.652Z,15.22
2019-04-30T00:57:19.404Z,15.18
2019-04-30T00:58:25.853Z,15.17
2019-04-30T00:59:30.613Z,15.16
2019-04-30T01:00:37.147Z,15.19
2019-04-30T01:01:56.324Z,15.13
2019-04-30T01:03:05.891Z,15.10
2019-04-30T01:04:12.746Z,15.12
2019-04-30T01:05:21.193Z,15.12
2019-04-30T01:06:28.616Z,15.12
2019-04-30T01:07:32.490Z,15.12
2019-04-30T01:08:36.741Z,15.12
2019-04-30T01:09:46.520Z,15.13
2019-04-30T01:10:46.871Z,15.14
2019-04-30T01:11:51.052Z,15.08
2019-04-30T01:12:59.854Z,15.00
2019-04-30T01:14:01.193Z,15.04
2019-04-30T01:15:10.343Z,15.03
2019-04-30T01:16:12.062Z,15.07
2019-04-30T01:17:16.282Z,15.07
2019-04-30T01:18:23.580Z,15.09
2019-04-30T01:19:30.116Z,15.12
2019-04-30T01:20:32.984Z,15.13
2019-04-30T01:21:40.199Z,15.15
2019-04-30T01:22:43.212Z,15.15
2019-04-30T01:23:51.817Z,15.14
2019-04-30T01:24:53.354Z,15.16
2019-04-30T01:25:58.546Z,15.18
2019-04-30T01:27:06.707Z,15.17
2019-04-30T01:28:10.871Z,15.17
2019-04-30T01:29:15.175Z,15.17
2019-04-30T01:30:22.709Z,15.10
2019-04-30T01:31:25.716Z,15.09
2019-04-30T01:32:30.176Z,15.11
2019-04-30T01:33:35.706Z,15.11
2019-04-30T01:34:44.268Z,15.12
2019-04-30T01:35:48.793Z,15.13
2019-04-30T01:36:53.073Z,15.07
2019-04-30T01:37:57.373Z,15.07
2019-04-30T01:39:02.206Z,15.08
2019-04-30T01:40:13.673Z,15.09
2019-04-30T01:41:13.928Z,15.10
2019-04-30T01:42:18.545Z,15.07
2019-04-30T01:43:30.574Z,15.08
2019-04-30T01:44:29.511Z,15.09
2019-04-30T01:45:33.773Z,15.10
2019-04-30T01:46:39.080Z,15.10
2019-04-30T01:47:43.252Z,15.09
2019-04-30T01:48:48.592Z,15.11
2019-04-30T01:49:55.910Z,15.12
2019-04-30T01:51:01.151Z,15.14
2019-04-30T01:52:05.362Z,15.13
2019-04-30T01:53:13.044Z,15.15
2019-04-30T01:54:20.817Z,15.16
2019-04-30T01:55:24.397Z,15.17
2019-04-30T01:56:30.220Z,15.15
2019-04-30T01:57:45.082Z,15.17
2019-04-30T01:58:59.907Z,15.18
2019-04-30T02:00:16.744Z,15.18
2019-04-30T02:01:22.629Z,15.13
2019-04-30T02:02:28.667Z,15.16
2019-04-30T02:03:33.120Z,15.15
2019-04-30T02:04:39.334Z,15.14
2019-04-30T02:05:43.273Z,15.15
2019-04-30T02:06:49.374Z,15.15
2019-04-30T02:07:53.742Z,15.14
2019-04-30T02:08:59.349Z,15.10
2019-04-30T02:10:05.105Z,15.10
2019-04-30T02:11:09.291Z,15.12
2019-04-30T02:12:13.498Z,15.12
2019-04-30T02:13:18.880Z,15.12
2019-04-30T02:14:23.401Z,15.10
2019-04-30T02:15:29.189Z,15.13
2019-04-30T02:16:33.540Z,15.15
2019-04-30T02:17:38.833Z,15.14
2019-04-30T02:18:43.187Z,15.15
2019-04-30T02:19:54.771Z,15.17
2019-04-30T02:20:53.342Z,15.17
2019-04-30T02:21:58.567Z,15.18
2019-04-30T02:23:02.752Z,15.19
2019-04-30T02:24:08.939Z,15.19
2019-04-30T02:25:14.615Z,15.20
2019-04-30T02:26:18.881Z,15.19
2019-04-30T02:27:23.166Z,15.20
2019-04-30T02:28:28.994Z,15.16
2019-04-30T02:29:33.579Z,15.14
2019-04-30T02:30:40.458Z,15.12
2019-04-30T02:31:44.668Z,15.13
2019-04-30T02:32:52.266Z,15.12
2019-04-30T02:33:56.584Z,15.13
2019-04-30T02:35:11.814Z,15.12
2019-04-30T02:36:24.218Z,15.13
2019-04-30T02:37:30.242Z,15.13
2019-04-30T02:38:36.130Z,15.08
2019-04-30T02:39:40.516Z,15.08
2019-04-30T02:40:45.218Z,15.04
2019-04-30T02:41:50.654Z,15.05
2019-04-30T02:42:57.871Z,15.00
2019-04-30T02:44:00.966Z,15.04
2019-04-30T02:45:10.130Z,15.04
2019-04-30T02:46:13.138Z,15.05
2019-04-30T02:47:20.106Z,15.05
2019-04-30T02:48:23.308Z,15.04
2019-04-30T02:49:30.320Z,15.06
2019-04-30T02:50:33.763Z,15.06
2019-04-30T02:51:40.005Z,15.04
2019-04-30T02:52:44.034Z,14.99
2019-04-30T02:54:00.560Z,14.99
2019-04-30T02:55:05.042Z,15.03
2019-04-30T02:56:09.971Z,15.05
2019-04-30T02:57:14.261Z,15.05
2019-04-30T02:58:21.008Z,15.07
2019-04-30T02:59:24.669Z,15.07
2019-04-30T03:00:32.549Z,15.08
2019-04-30T03:01:34.807Z,15.07
2019-04-30T03:02:39.598Z,15.07
2019-04-30T03:03:43.803Z,15.05
2019-04-30T03:04:50.254Z,15.06
2019-04-30T03:05:53.997Z,15.05
2019-04-30T03:06:59.884Z,15.05
2019-04-30T03:08:05.032Z,15.06
2019-04-30T03:09:10.291Z,14.99
2019-04-30T03:10:15.378Z,14.92
2019-04-30T03:11:20.654Z,14.94
2019-04-30T03:12:25.327Z,14.92
2019-04-30T03:13:30.580Z,14.94
2019-04-30T03:14:35.847Z,14.95
2019-04-30T03:15:40.148Z,14.96
2019-04-30T03:16:52.735Z,14.96
2019-04-30T03:18:00.621Z,14.98
2019-04-30T03:19:24.691Z,15.00
2019-04-30T03:20:36.764Z,14.98
2019-04-30T03:22:00.148Z,14.97
2019-04-30T03:23:04.662Z,14.97
2019-04-30T03:24:10.752Z,14.89
2019-04-30T03:25:15.294Z,14.92
2019-04-30T03:26:20.085Z,14.94
2019-04-30T03:27:25.481Z,14.94
2019-04-30T03:28:30.222Z,14.95
2019-04-30T03:29:34.598Z,14.95
2019-04-30T03:30:41.789Z,14.93
2019-04-30T03:31:45.777Z,14.93
2019-04-30T03:32:56.571Z,14.94
2019-04-30T03:34:01.561Z,14.94
2019-04-30T03:35:05.075Z,14.95
2019-04-30T03:36:12.447Z,14.92
2019-04-30T03:37:15.249Z,14.91
2019-04-30T03:38:20.428Z,14.92
2019-04-30T03:39:29.701Z,14.91
2019-04-30T03:40:50.202Z,14.89
2019-04-30T03:41:59.531Z,14.91
2019-04-30T03:43:09.950Z,14.90
2019-04-30T03:44:21.572Z,14.87
2019-04-30T03:45:20.896Z,14.88
2019-04-30T03:46:25.173Z,14.88
2019-04-30T03:47:29.982Z,14.89
2019-04-30T03:48:34.479Z,14.89
2019-04-30T03:49:40.189Z,14.89
2019-04-30T03:50:53.232Z,14.81
2019-04-30T03:51:51.657Z,14.92
2019-04-30T03:52:56.036Z,14.91
2019-04-30T03:54:00.290Z,14.87
2019-04-30T03:55:06.291Z,14.84
2019-04-30T03:56:10.470Z,14.82
2019-04-30T03:57:14.718Z,14.82
2019-04-30T03:58:21.294Z,14.85
2019-04-30T03:59:24.876Z,14.87
2019-04-30T04:00:46.843Z,14.87
2019-04-30T04:01:53.742Z,14.87
2019-04-30T04:02:59.938Z,14.87
2019-04-30T04:04:15.271Z,14.87
2019-04-30T04:05:23.989Z,14.88
2019-04-30T04:06:32.777Z,14.86
2019-04-30T04:07:59.254Z,14.87
2019-04-30T04:09:10.118Z,14.86
2019-04-30T04:10:23.663Z,14.84
2019-04-30T04:11:29.933Z,14.83
2019-04-30T04:12:34.218Z,14.81
2019-04-30T04:13:40.023Z,14.81
2019-04-30T04:14:44.515Z,14.81
2019-04-30T04:15:49.989Z,14.83
2019-04-30T04:16:54.255Z,14.84
2019-04-30T04:18:00.329Z,14.84
2019-04-30T04:19:04.474Z,14.85
2019-04-30T04:20:10.744Z,14.85
2019-04-30T04:21:16.890Z,14.87
2019-04-30T04:22:21.034Z,14.88
2019-04-30T04:23:25.377Z,14.82
2019-04-30T04:24:30.211Z,14.91
2019-04-30T04:25:34.665Z,14.90
2019-04-30T04:26:43.345Z,14.87
2019-04-30T04:27:45.178Z,14.86
2019-04-30T04:28:49.838Z,14.86
2019-04-30T04:29:54.264Z,14.86
2019-04-30T04:31:00.155Z,14.86
2019-04-30T04:32:04.758Z,14.87
2019-04-30T04:33:10.185Z,14.85
2019-04-30T04:34:14.753Z,14.87
2019-04-30T04:35:19.726Z,14.86
2019-04-30T04:36:24.232Z,14.86
2019-04-30T04:37:30.218Z,14.87
2019-04-30T04:38:34.474Z,14.83
2019-04-30T04:39:38.973Z,14.84
2019-04-30T04:40:44.674Z,14.84
2019-04-30T04:41:50.370Z,14.81
2019-04-30T04:42:54.764Z,14.77
2019-04-30T04:44:00.210Z,14.79
2019-04-30T04:45:05.302Z,14.81
2019-04-30T04:46:09.545Z,14.81
2019-04-30T04:47:16.131Z,14.80
2019-04-30T04:48:23.046Z,14.81
2019-04-30T04:49:25.896Z,14.83
2019-04-30T04:50:30.527Z,14.86
2019-04-30T04:51:39.585Z,14.87
2019-04-30T04:52:41.651Z,14.85
2019-04-30T04:53:45.839Z,14.88
2019-04-30T04:54:50.990Z,14.88
2019-04-30T04:55:55.435Z,14.88
2019-04-30T04:57:13.222Z,14.90
2019-04-30T04:58:05.633Z,14.90
2019-04-30T04:59:10.368Z,14.92
2019-04-30T05:00:14.809Z,14.90
2019-04-30T05:01:20.590Z,14.91
2019-04-30T05:02:32.343Z,14.90
2019-04-30T05:03:39.916Z,14.90
2019-04-30T05:04:44.277Z,14.89
2019-04-30T05:05:49.968Z,14.89
2019-04-30T05:06:54.712Z,14.91
2019-04-30T05:07:58.891Z,14.90
2019-04-30T05:09:03.217Z,14.91
2019-04-30T05:10:09.202Z,14.93
2019-04-30T05:11:13.467Z,14.93
2019-04-30T05:12:18.571Z,14.94
2019-04-30T05:13:22.868Z,14.96
2019-04-30T05:14:28.808Z,14.96
2019-04-30T05:15:33.152Z,14.97
2019-04-30T05:16:38.885Z,14.99
2019-04-30T05:17:49.442Z,15.01
2019-04-30T05:18:53.738Z,14.97
2019-04-30T05:19:58.684Z,14.91
2019-04-30T05:21:03.166Z,14.93
2019-04-30T05:22:09.221Z,14.96
2019-04-30T05:23:13.799Z,14.96
2019-04-30T05:24:19.128Z,14.97
2019-04-30T05:25:23.449Z,14.99
2019-04-30T05:26:28.682Z,15.01
2019-04-30T05:27:33.297Z,15.02
2019-04-30T05:28:39.322Z,15.01
2019-04-30T05:29:43.649Z,15.02
2019-04-30T05:30:49.420Z,15.03
2019-04-30T05:31:53.752Z,15.03
2019-04-30T05:32:58.887Z,15.03
2019-04-30T05:34:03.139Z,14.97
2019-04-30T05:35:07.323Z,14.98
2019-04-30T05:36:11.517Z,14.98
2019-04-30T05:37:15.777Z,14.98
2019-04-30T05:38:19.976Z,14.99
2019-04-30T05:39:24.226Z,15.00
2019-04-30T05:40:28.794Z,14.99
2019-04-30T05:41:33.080Z,15.00
2019-04-30T05:42:38.775Z,15.02
2019-04-30T05:43:43.177Z,15.01
2019-04-30T05:44:49.536Z,15.05
2019-04-30T05:45:53.454Z,15.06
2019-04-30T05:46:59.220Z,15.06
2019-04-30T05:48:04.566Z,15.04
2019-04-30T05:49:09.082Z,15.01
2019-04-30T05:50:13.281Z,15.03
2019-04-30T05:51:19.372Z,15.02
2019-04-30T05:52:23.351Z,15.06
2019-04-30T05:53:28.705Z,15.07
2019-04-30T05:54:33.110Z,15.09
2019-04-30T05:55:39.381Z,15.09
2019-04-30T05:56:43.569Z,15.09
2019-04-30T05:57:56.037Z,15.13
2019-04-30T05:58:53.631Z,15.14
2019-04-30T05:59:58.559Z,15.15
2019-04-30T06:01:02.931Z,15.14
2019-04-30T06:02:08.833Z,15.15
2019-04-30T06:03:24.961Z,15.15
2019-04-30T06:04:19.420Z,15.10
2019-04-30T06:05:23.902Z,15.12
2019-04-30T06:06:29.038Z,15.09
2019-04-30T06:07:33.326Z,15.12
2019-04-30T06:08:42.084Z,15.05
2019-04-30T06:09:48.530Z,15.17
2019-04-30T06:10:55.514Z,15.19
2019-04-30T06:12:12.867Z,15.19
2019-04-30T06:13:28.742Z,15.21
2019-04-30T06:14:49.895Z,15.21
2019-04-30T06:15:53.887Z,15.20
2019-04-30T06:17:11.401Z,15.23
2019-04-30T06:18:15.791Z,15.23
2019-04-30T06:19:19.977Z,15.25
2019-04-30T06:20:24.165Z,15.25
2019-04-30T06:21:29.467Z,15.25
2019-04-30T06:22:33.857Z,15.28
2019-04-30T06:23:39.299Z,15.30
2019-04-30T06:24:43.566Z,15.33
2019-04-30T06:25:57.265Z,15.30
2019-04-30T06:26:55.081Z,15.33
2019-04-30T06:27:59.273Z,15.32
2019-04-30T06:29:04.527Z,15.34
2019-04-30T06:30:09.671Z,15.36
2019-04-30T06:31:14.976Z,15.35
2019-04-30T06:32:19.230Z,15.33
2019-04-30T06:33:23.431Z,15.26
2019-04-30T06:34:29.406Z,15.27
2019-04-30T06:35:33.745Z,15.26
2019-04-30T06:36:39.469Z,15.30
2019-04-30T06:37:44.000Z,15.29
2019-04-30T06:38:48.941Z,15.31
2019-04-30T06:39:53.391Z,15.26
2019-04-30T06:40:58.828Z,15.27
2019-04-30T06:42:06.765Z,15.28
2019-04-30T06:43:09.295Z,15.31
2019-04-30T06:44:13.631Z,15.30
2019-04-30T06:45:19.150Z,15.29
2019-04-30T06:46:23.476Z,15.31
2019-04-30T06:47:33.119Z,15.31
2019-04-30T06:48:33.647Z,15.31
2019-04-30T06:49:39.323Z,15.30
2019-04-30T06:50:44.010Z,15.31
2019-04-30T06:51:49.198Z,15.28
2019-04-30T06:52:58.402Z,15.30
2019-04-30T06:53:59.529Z,15.29
2019-04-30T06:55:04.346Z,15.30
2019-04-30T06:56:09.978Z,15.31
2019-04-30T06:57:14.168Z,15.33
2019-04-30T06:58:20.500Z,15.34
2019-04-30T06:59:24.286Z,15.36
2019-04-30T07:00:40.076Z,15.37
2019-04-30T07:01:44.217Z,15.37
2019-04-30T07:02:49.445Z,15.35
2019-04-30T07:03:55.625Z,15.37
2019-04-30T07:04:59.881Z,15.34
2019-04-30T07:06:04.533Z,15.36
2019-04-30T07:07:09.285Z,15.24
2019-04-30T07:08:39.637Z,15.38
2019-04-30T07:09:51.493Z,15.40
2019-04-30T07:10:55.367Z,15.41
2019-04-30T07:12:09.042Z,15.42
2019-04-30T07:13:15.006Z,15.43
2019-04-30T07:14:24.989Z,15.42
2019-04-30T07:15:29.674Z,15.42
2019-04-30T07:16:34.273Z,15.41
2019-04-30T07:17:40.524Z,15.41
2019-04-30T07:18:44.536Z,15.42
2019-04-30T07:19:54.302Z,15.41
2019-04-30T07:20:54.710Z,15.42
2019-04-30T07:21:59.432Z,15.43
2019-04-30T07:23:04.876Z,15.45
2019-04-30T07:24:09.415Z,15.46
2019-04-30T07:25:13.724Z,15.49
2019-04-30T07:26:22.746Z,15.47
2019-04-30T07:27:24.369Z,15.48
2019-04-30T07:28:43.729Z,15.47
2019-04-30T07:29:34.876Z,15.50
2019-04-30T07:30:39.614Z,15.50
2019-04-30T07:31:43.939Z,15.53
2019-04-30T07:32:48.987Z,15.56
2019-04-30T07:33:54.105Z,15.53
2019-04-30T07:34:59.572Z,15.55
2019-04-30T07:36:03.893Z,15.58
2019-04-30T07:37:14.477Z,15.60
2019-04-30T07:38:14.047Z,15.65
2019-04-30T07:39:19.248Z,15.66
2019-04-30T07:40:23.829Z,15.69
2019-04-30T07:41:30.811Z,15.75
2019-04-30T07:42:38.187Z,15.79
2019-04-30T07:43:39.940Z,15.84
2019-04-30T07:44:44.199Z,15.86
2019-04-30T07:45:49.603Z,15.92
2019-04-30T07:46:55.022Z,15.98
2019-04-30T07:47:59.498Z,16.05
2019-04-30T07:49:03.637Z,16.11
2019-04-30T07:50:10.289Z,16.16
2019-04-30T07:51:14.417Z,16.25
2019-04-30T07:52:21.642Z,16.31
2019-04-30T07:53:24.817Z,16.40
2019-04-30T07:54:30.062Z,16.47
2019-04-30T07:55:34.333Z,16.54
2019-04-30T07:56:41.501Z,16.59
2019-04-30T07:57:44.595Z,16.64
2019-04-30T07:58:50.476Z,16.69
2019-04-30T07:59:54.813Z,16.75
2019-04-30T08:00:59.383Z,16.83
2019-04-30T08:02:10.875Z,16.88
2019-04-30T08:03:24.062Z,16.96
2019-04-30T08:04:35.678Z,17.02
2019-04-30T08:05:41.633Z,17.06
2019-04-30T08:06:45.963Z,17.12
2019-04-30T08:07:51.496Z,17.17
2019-04-30T08:08:58.338Z,17.24
2019-04-30T08:10:01.816Z,17.30
2019-04-30T08:11:06.068Z,17.34
2019-04-30T08:12:11.600Z,17.39
2019-04-30T08:13:16.821Z,17.45
2019-04-30T08:14:24.352Z,17.51
2019-04-30T08:15:29.454Z,17.58
2019-04-30T08:16:33.528Z,17.64
2019-04-30T08:17:38.927Z,17.68
2019-04-30T08:18:43.265Z,17.69
2019-04-30T08:19:49.002Z,17.75
2019-04-30T08:20:53.431Z,17.85
2019-04-30T08:21:58.570Z,17.91
2019-04-30T08:23:13.336Z,17.96
2019-04-30T08:24:09.275Z,18.01
2019-04-30T08:25:13.718Z,18.06
2019-04-30T08:26:18.866Z,18.11
2019-04-30T08:27:23.271Z,18.17
2019-04-30T08:28:30.192Z,18.20
2019-04-30T08:29:33.417Z,18.23
2019-04-30T08:30:39.151Z,18.26
2019-04-30T08:31:43.676Z,18.30
2019-04-30T08:32:49.784Z,18.30
2019-04-30T08:33:54.817Z,18.34
2019-04-30T08:35:00.960Z,18.39
2019-04-30T08:36:04.910Z,18.43
2019-04-30T08:37:17.035Z,18.45
2019-04-30T08:38:15.006Z,18.47
2019-04-30T08:39:19.716Z,18.51
2019-04-30T08:40:24.139Z,18.56
2019-04-30T08:41:29.254Z,18.59
2019-04-30T08:42:34.663Z,18.64
2019-04-30T08:43:39.607Z,18.65
2019-04-30T08:44:43.795Z,18.69
2019-04-30T08:45:48.827Z,18.69
2019-04-30T08:46:53.195Z,18.70
2019-04-30T08:47:58.999Z,18.69
2019-04-30T08:49:03.853Z,18.74
2019-04-30T08:50:09.760Z,18.77
2019-04-30T08:51:15.424Z,18.78
2019-04-30T08:52:20.056Z,18.81
2019-04-30T08:53:29.432Z,18.84
2019-04-30T08:54:30.694Z,18.83
2019-04-30T08:55:35.134Z,18.88
2019-04-30T08:56:39.316Z,18.93
2019-04-30T08:57:43.674Z,18.95
2019-04-30T08:58:49.095Z,18.98
2019-04-30T08:59:53.406Z,19.03
2019-04-30T09:00:58.801Z,19.07
2019-04-30T09:02:15.303Z,19.12
2019-04-30T09:03:09.411Z,19.15
2019-04-30T09:04:13.809Z,19.23
2019-04-30T09:05:28.159Z,19.28
2019-04-30T09:06:31.936Z,19.30
2019-04-30T09:07:36.115Z,19.34
2019-04-30T09:08:40.472Z,19.26
2019-04-30T09:09:45.134Z,19.37
2019-04-30T09:10:50.942Z,19.37
2019-04-30T09:11:55.944Z,19.42
2019-04-30T09:13:00.296Z,19.46
2019-04-30T09:14:04.482Z,19.50
2019-04-30T09:15:09.188Z,19.56
2019-04-30T09:16:13.787Z,19.55
2019-04-30T09:17:20.027Z,19.57
2019-04-30T09:18:24.470Z,19.61
2019-04-30T09:19:29.848Z,19.65
2019-04-30T09:20:34.340Z,19.68
2019-04-30T09:21:40.188Z,19.71
2019-04-30T09:22:44.490Z,19.78
2019-04-30T09:23:52.408Z,19.82
2019-04-30T09:24:54.647Z,19.93
2019-04-30T09:25:58.920Z,19.98
2019-04-30T09:27:04.351Z,20.04
2019-04-30T09:28:08.689Z,20.09
2019-04-30T09:29:13.215Z,20.14
2019-04-30T09:30:18.882Z,20.18
2019-04-30T09:31:23.332Z,20.21
2019-04-30T09:32:29.111Z,20.23
2019-04-30T09:33:33.470Z,20.25
2019-04-30T09:34:38.466Z,20.28
2019-04-30T09:35:42.933Z,20.31
2019-04-30T09:36:48.888Z,20.31
2019-04-30T09:37:59.782Z,20.33
2019-04-30T09:39:01.538Z,20.34
2019-04-30T09:40:16.249Z,20.39
2019-04-30T09:41:13.682Z,20.36
2019-04-30T09:42:19.465Z,20.41
2019-04-30T09:43:25.158Z,20.48
2019-04-30T09:44:30.965Z,20.47
2019-04-30T09:45:35.342Z,20.52
2019-04-30T09:46:39.588Z,20.55
2019-04-30T09:47:44.391Z,20.60
2019-04-30T09:48:50.679Z,20.63
2019-04-30T09:49:54.745Z,20.68
2019-04-30T09:51:00.654Z,20.72
2019-04-30T09:52:05.055Z,20.75
2019-04-30T09:53:10.522Z,20.77
2019-04-30T09:54:19.683Z,20.73
2019-04-30T09:55:20.948Z,20.88
2019-04-30T09:56:25.221Z,20.91
2019-04-30T09:57:29.691Z,20.91
2019-04-30T09:58:34.884Z,20.92
2019-04-30T09:59:39.215Z,21.04
2019-04-30T10:00:43.771Z,21.07
2019-04-30T10:01:48.113Z,21.09
2019-04-30T10:02:52.293Z,21.15
2019-04-30T10:03:57.466Z,21.20
2019-04-30T10:05:05.528Z,21.25
2019-04-30T10:06:10.172Z,21.29
2019-04-30T10:07:14.472Z,21.30
2019-04-30T10:08:20.759Z,21.32
2019-04-30T10:09:24.931Z,21.39
2019-04-30T10:10:30.820Z,21.41
2019-04-30T10:11:36.762Z,21.47
2019-04-30T10:12:41.513Z,21.54
2019-04-30T10:13:45.786Z,21.57
2019-04-30T10:14:51.003Z,21.55
2019-04-30T10:15:59.747Z,21.64
2019-04-30T10:17:30.711Z,21.68
2019-04-30T10:18:43.021Z,21.69
2019-04-30T10:19:49.041Z,21.74
2019-04-30T10:20:53.188Z,21.77
2019-04-30T10:21:58.999Z,21.83
2019-04-30T10:23:03.555Z,21.86
2019-04-30T10:24:13.051Z,21.91
2019-04-30T10:25:13.746Z,21.94
2019-04-30T10:26:17.912Z,21.99
2019-04-30T10:27:22.932Z,21.99
2019-04-30T10:28:45.105Z,22.01
2019-04-30T10:29:49.962Z,22.04
2019-04-30T10:30:54.227Z,22.08
2019-04-30T10:31:58.827Z,22.11
2019-04-30T10:33:03.100Z,22.13
2019-04-30T10:34:07.339Z,22.16
2019-04-30T10:35:11.516Z,22.19
2019-04-30T10:36:15.814Z,22.22
2019-04-30T10:37:19.997Z,22.27
2019-04-30T10:38:24.240Z,22.29
2019-04-30T10:39:29.675Z,22.32
2019-04-30T10:40:34.138Z,22.36
2019-04-30T10:41:39.507Z,22.39
2019-04-30T10:42:43.808Z,22.41
2019-04-30T10:43:49.200Z,22.42
2019-04-30T10:44:53.592Z,22.48
2019-04-30T10:45:58.590Z,22.50
2019-04-30T10:47:03.058Z,22.57
2019-04-30T10:48:07.309Z,22.60
2019-04-30T10:49:11.839Z,22.68
2019-04-30T10:50:16.607Z,22.69
2019-04-30T10:51:20.870Z,22.70
2019-04-30T10:52:25.060Z,22.74
2019-04-30T10:53:29.297Z,22.77
2019-04-30T10:54:33.996Z,22.81
2019-04-30T10:55:39.397Z,22.85
2019-04-30T10:56:43.712Z,22.84
2019-04-30T10:57:49.564Z,22.84
2019-04-30T10:58:53.773Z,22.86
2019-04-30T10:59:58.694Z,22.80
2019-04-30T11:01:03.100Z,22.81
2019-04-30T11:02:09.048Z,22.84
2019-04-30T11:03:19.978Z,22.84
2019-04-30T11:04:20.992Z,22.86
2019-04-30T11:05:25.229Z,22.93
2019-04-30T11:06:29.531Z,22.95
2019-04-30T11:07:33.707Z,22.96
2019-04-30T11:08:37.895Z,23.00
2019-04-30T11:09:42.132Z,23.01
2019-04-30T11:10:46.577Z,23.03
2019-04-30T11:11:50.867Z,23.09
2019-04-30T11:12:55.045Z,23.12
2019-04-30T11:13:59.360Z,23.14
2019-04-30T11:15:06.337Z,23.13
2019-04-30T11:16:15.177Z,23.11
2019-04-30T11:17:16.864Z,23.23
2019-04-30T11:18:21.613Z,23.23
2019-04-30T11:19:26.125Z,23.23
2019-04-30T11:20:30.640Z,23.20
2019-04-30T11:21:35.173Z,23.23
2019-04-30T11:22:39.716Z,23.23
2019-04-30T11:23:44.324Z,23.19
2019-04-30T11:24:59.137Z,23.16
2019-04-30T11:25:54.990Z,23.13
2019-04-30T11:27:01.661Z,23.05
2019-04-30T11:28:06.878Z,23.05
2019-04-30T11:29:12.580Z,23.08
2019-04-30T11:30:21.349Z,23.06
2019-04-30T11:31:24.856Z,23.05
2019-04-30T11:32:29.452Z,23.06
2019-04-30T11:33:34.138Z,23.05
2019-04-30T11:34:38.808Z,23.05
2019-04-30T11:35:42.987Z,23.05
2019-04-30T11:36:47.233Z,23.12
2019-04-30T11:37:51.415Z,23.12
2019-04-30T11:38:55.746Z,23.18
2019-04-30T11:40:00.102Z,23.22
2019-04-30T11:41:04.415Z,23.24
2019-04-30T11:42:08.744Z,23.29
2019-04-30T11:43:12.911Z,23.27
2019-04-30T11:44:30.619Z,23.25
2019-04-30T11:45:45.772Z,23.31
2019-04-30T11:46:59.737Z,23.33
2019-04-30T11:48:04.420Z,23.36
2019-04-30T11:49:09.651Z,23.20
2019-04-30T11:50:14.009Z,23.30
2019-04-30T11:51:19.424Z,23.27
2019-04-30T11:52:23.870Z,23.30
2019-04-30T11:53:30.637Z,23.34
2019-04-30T11:54:33.928Z,23.37
2019-04-30T11:55:39.045Z,23.40
2019-04-30T11:56:43.339Z,23.38
2019-04-30T11:57:49.416Z,23.37
2019-04-30T11:58:53.764Z,23.41
2019-04-30T11:59:57.953Z,23.39
2019-04-30T12:01:02.435Z,23.37
2019-04-30T12:02:08.253Z,23.38
2019-04-30T12:03:12.522Z,23.36
2019-04-30T12:04:16.751Z,23.40
2019-04-30T12:05:20.969Z,23.45
2019-04-30T12:06:25.165Z,23.47
2019-04-30T12:07:33.964Z,23.51
2019-04-30T12:08:55.892Z,23.51
2019-04-30T12:10:19.458Z,23.51
2019-04-30T12:11:41.251Z,23.55
2019-04-30T12:12:46.025Z,23.49
2019-04-30T12:13:50.203Z,23.49
2019-04-30T12:14:54.476Z,23.46
2019-04-30T12:15:59.094Z,23.52
2019-04-30T12:17:03.322Z,23.52
2019-04-30T12:18:07.507Z,23.53
2019-04-30T12:19:11.696Z,23.56
2019-04-30T12:20:16.150Z,23.59
2019-04-30T12:21:20.357Z,23.60
2019-04-30T12:22:24.534Z,23.57
2019-04-30T12:23:28.823Z,23.49
2019-04-30T12:24:33.008Z,23.46
2019-04-30T12:25:38.813Z,23.40
2019-04-30T12:26:43.210Z,23.43
2019-04-30T12:27:48.782Z,23.45
2019-04-30T12:28:53.255Z,23.48
2019-04-30T12:29:59.334Z,23.50
2019-04-30T12:31:05.789Z,23.46
2019-04-30T12:32:09.215Z,23.49
2019-04-30T12:33:13.403Z,23.49
2019-04-30T12:34:19.269Z,23.52
2019-04-30T12:35:23.524Z,23.55
2019-04-30T12:36:28.922Z,23.58
2019-04-30T12:37:33.648Z,23.56
2019-04-30T12:38:38.100Z,23.56
2019-04-30T12:39:42.278Z,23.60
2019-04-30T12:40:46.571Z,23.60
2019-04-30T12:41:50.749Z,23.65
2019-04-30T12:42:54.936Z,23.62
2019-04-30T12:43:59.142Z,23.64
2019-04-30T12:45:07.214Z,23.59
2019-04-30T12:46:11.428Z,23.57
2019-04-30T12:47:15.737Z,23.61
2019-04-30T12:48:21.554Z,23.61
2019-04-30T12:49:25.805Z,23.63
2019-04-30T12:50:31.804Z,23.68
2019-04-30T12:51:45.551Z,23.67
2019-04-30T12:53:03.075Z,23.69
2019-04-30T12:54:11.821Z,23.65
2019-04-30T12:55:32.568Z,23.64
2019-04-30T12:56:55.589Z,23.67
2019-04-30T12:58:01.743Z,23.69
2019-04-30T12:59:05.897Z,23.70
2019-04-30T13:00:11.622Z,23.72
2019-04-30T13:01:16.043Z,23.70
2019-04-30T13:02:20.257Z,23.75
2019-04-30T13:03:24.768Z,23.72
2019-04-30T13:04:29.472Z,23.75
2019-04-30T13:05:33.722Z,23.75
2019-04-30T13:06:38.501Z,23.80
2019-04-30T13:07:43.502Z,23.80
2019-04-30T13:08:51.665Z,23.82
2019-04-30T13:09:54.919Z,23.85
2019-04-30T13:10:59.864Z,23.88
2019-04-30T13:12:05.142Z,23.81
2019-04-30T13:13:10.400Z,23.80
2019-04-30T13:14:15.580Z,23.81
2019-04-30T13:15:20.272Z,23.82
2019-04-30T13:16:24.514Z,23.82
2019-04-30T13:17:29.007Z,23.83
2019-04-30T13:18:33.248Z,23.84
2019-04-30T13:19:37.507Z,23.86
2019-04-30T13:20:41.759Z,23.87
2019-04-30T13:21:46.766Z,23.88
2019-04-30T13:22:51.048Z,23.91
2019-04-30T13:23:56.820Z,23.92
2019-04-30T13:25:01.345Z,23.90
2019-04-30T13:26:05.581Z,23.92
2019-04-30T13:27:09.759Z,23.95
2019-04-30T13:28:18.315Z,23.97
2019-04-30T13:29:24.221Z,24.00
2019-04-30T13:30:30.226Z,23.98
2019-04-30T13:31:34.476Z,23.98
2019-04-30T13:32:40.340Z,23.99
2019-04-30T13:33:46.800Z,23.99
2019-04-30T13:34:53.555Z,24.00
2019-04-30T13:35:58.813Z,24.00
2019-04-30T13:37:03.078Z,23.99
2019-04-30T13:38:14.628Z,24.00
2019-04-30T13:39:27.093Z,24.01
2019-04-30T13:40:33.539Z,24.00
2019-04-30T13:41:46.286Z,24.02
2019-04-30T13:42:52.161Z,24.03
2019-04-30T13:43:58.752Z,24.04
2019-04-30T13:45:06.357Z,24.01
2019-04-30T13:46:10.602Z,23.98
2019-04-30T13:47:14.774Z,24.04
2019-04-30T13:48:19.727Z,24.07
2019-04-30T13:49:24.077Z,24.11
2019-04-30T13:50:29.251Z,24.13
2019-04-30T13:51:33.596Z,24.13
2019-04-30T13:52:38.931Z,24.12
2019-04-30T13:53:43.284Z,24.14
2019-04-30T13:54:47.516Z,24.11
2019-04-30T13:55:51.731Z,24.12
2019-04-30T13:56:55.907Z,24.12
2019-04-30T13:58:00.237Z,24.14
2019-04-30T13:59:04.680Z,24.13
2019-04-30T14:00:12.199Z,24.09
2019-04-30T14:01:16.746Z,24.09
2019-04-30T14:02:20.959Z,24.05
2019-04-30T14:03:32.726Z,24.03
2019-04-30T14:04:41.446Z,23.98
2019-04-30T14:05:45.621Z,23.99
2019-04-30T14:07:03.386Z,24.00
2019-04-30T14:08:11.723Z,23.98